createdAt,value
2019-03-21T00:01:12.308Z,14.20
2019-03-21T00:03:38.658Z,14.20
2019-03-21T00:06:07.330Z,14.10
2019-03-21T00:08:35.294Z,14.10
2019-03-21T00:11:38.919Z,14.10
2019-03-21T00:14:11.974Z,14.10
2019-03-21T00:16:38.322Z,14.10
2019-03-21T00:19:05.361Z,14.10
2019-03-21T00:21:31.832Z,14.10
2019-03-21T00:23:58.235Z,14.10
2019-03-21T00:26:24.515Z,14.10
2019-03-21T00:28:50.900Z,14.10
2019-03-21T00:31:17.445Z,14.10
2019-03-21T00:33:44.553Z,14.00
2019-03-21T00:36:10.913Z,14.10
2019-03-21T00:38:37.241Z,14.00
2019-03-21T00:41:03.675Z,14.00
2019-03-21T00:43:30.019Z,14.00
2019-03-21T00:45:56.315Z,13.90
2019-03-21T00:48:22.615Z,13.90
2019-03-21T00:50:48.995Z,13.80
2019-03-21T00:53:15.224Z,13.70
2019-03-21T00:55:45.912Z,13.60
2019-03-21T00:58:12.217Z,13.50
2019-03-21T01:00:42.201Z,13.50
2019-03-21T01:03:09.824Z,13.30
2019-03-21T01:05:36.194Z,13.20
2019-03-21T01:08:02.545Z,13.10
2019-03-21T01:10:30.561Z,13.00
2019-03-21T01:12:56.946Z,13.00
2019-03-21T01:15:23.357Z,12.90
2019-03-21T01:17:49.729Z,12.80
2019-03-21T01:20:16.018Z,12.70
2019-03-21T01:22:43.283Z,12.60
2019-03-21T01:25:16.154Z,12.50
2019-03-21T01:27:42.485Z,12.50
2019-03-21T01:30:17.453Z,12.40
2019-03-21T01:32:44.458Z,12.30
2019-03-21T01:35:10.998Z,12.20
2019-03-21T01:37:37.285Z,12.10
2019-03-21T01:40:22.468Z,12.00
2019-03-21T01:42:48.772Z,12.00
2019-03-21T01:45:18.235Z,11.90
2019-03-21T01:47:44.565Z,11.80
2019-03-21T01:50:14.404Z,11.70
2019-03-21T01:52:40.823Z,11.70
2019-03-21T01:55:09.411Z,11.60
2019-03-21T01:57:35.928Z,11.50
2019-03-21T02:00:08.121Z,11.50
2019-03-21T02:02:34.527Z,11.40
2019-03-21T02:05:01.061Z,11.30
2019-03-21T02:07:27.518Z,11.30
2019-03-21T02:09:53.827Z,11.20
2019-03-21T02:12:20.041Z,11.20
2019-03-21T02:14:52.137Z,11.10
2019-03-21T02:17:14.865Z,11.00
2019-03-21T02:19:41.294Z,11.00
2019-03-21T02:22:07.626Z,10.90
2019-03-21T02:24:33.959Z,10.90
2019-03-21T02:27:00.288Z,10.80
2019-03-21T02:29:26.619Z,10.80
2019-03-21T02:31:53.048Z,10.80
2019-03-21T02:34:21.831Z,10.70
2019-03-21T02:36:48.183Z,10.70
2019-03-21T02:39:14.500Z,10.60
2019-03-21T02:41:41.182Z,10.60
2019-03-21T02:44:07.569Z,10.60
2019-03-21T02:46:34.229Z,10.50
2019-03-21T02:49:00.578Z,10.50
2019-03-21T02:51:26.916Z,10.40
2019-03-21T02:53:53.163Z,10.40
2019-03-21T02:56:25.512Z,10.30
2019-03-21T02:58:51.907Z,10.20
2019-03-21T03:01:18.271Z,10.30
2019-03-21T03:03:44.796Z,10.20
2019-03-21T03:06:11.240Z,10.20
2019-03-21T03:08:37.576Z,10.20
2019-03-21T03:11:10.580Z,10.10
2019-03-21T03:13:36.229Z,10.10
2019-03-21T03:16:02.920Z,10.00
2019-03-21T03:18:29.157Z,10.00
2019-03-21T03:20:56.285Z,9.90
2019-03-21T03:23:22.501Z,9.90
2019-03-21T03:25:50.998Z,9.90
2019-03-21T03:28:32.337Z,9.80
2019-03-21T03:30:58.641Z,9.80
2019-03-21T03:33:25.707Z,9.70
2019-03-21T03:35:53.716Z,9.70
2019-03-21T03:38:20.155Z,9.70
2019-03-21T03:40:56.315Z,9.60
2019-03-21T03:43:22.803Z,9.60
2019-03-21T03:45:49.122Z,9.60
2019-03-21T03:48:15.526Z,9.50
2019-03-21T03:50:41.845Z,9.50
2019-03-21T03:53:08.274Z,9.50
2019-03-21T03:55:35.112Z,9.40
2019-03-21T03:58:28.295Z,9.40
2019-03-21T04:00:54.711Z,9.30
2019-03-21T04:03:21.253Z,9.30
2019-03-21T04:05:48.504Z,9.30
2019-03-21T04:08:14.836Z,9.20
2019-03-21T04:10:46.144Z,9.20
2019-03-21T04:13:12.960Z,9.10
2019-03-21T04:15:51.681Z,9.10
2019-03-21T04:18:07.383Z,9.10
2019-03-21T04:20:40.567Z,9.10
2019-03-21T04:23:06.872Z,9.10
2019-03-21T04:25:39.171Z,9.00
2019-03-21T04:28:05.610Z,8.90
2019-03-21T04:30:31.910Z,8.90
2019-03-21T04:32:58.321Z,8.90
2019-03-21T04:35:24.650Z,8.80
2019-03-21T04:37:51.068Z,8.80
2019-03-21T04:40:17.805Z,8.80
2019-03-21T04:42:44.454Z,8.70
2019-03-21T04:45:21.375Z,8.70
2019-03-21T04:47:48.062Z,8.70
2019-03-21T04:50:20.557Z,8.70
2019-03-21T04:52:46.967Z,8.60
2019-03-21T04:55:14.874Z,8.60
2019-03-21T04:57:41.167Z,8.60
2019-03-21T05:00:13.946Z,8.50
2019-03-21T05:02:40.199Z,8.50
2019-03-21T05:05:09.074Z,8.50
2019-03-21T05:07:35.410Z,8.40
2019-03-21T05:10:01.931Z,8.40
2019-03-21T05:12:28.220Z,8.40
2019-03-21T05:14:54.589Z,8.30
2019-03-21T05:17:20.801Z,8.30
2019-03-21T05:19:47.149Z,8.30
2019-03-21T05:22:13.478Z,8.30
2019-03-21T05:24:40.031Z,8.20
2019-03-21T05:27:06.356Z,8.20
2019-03-21T05:29:32.653Z,8.20
2019-03-21T05:31:58.955Z,8.20
2019-03-21T05:34:25.642Z,8.10
2019-03-21T05:36:52.691Z,8.10
2019-03-21T05:39:19.019Z,8.10
2019-03-21T05:41:45.244Z,8.10
2019-03-21T05:44:24.126Z,8.00
2019-03-21T05:46:50.503Z,8.00
2019-03-21T05:49:16.835Z,8.00
2019-03-21T05:51:43.163Z,7.90
2019-03-21T05:54:09.499Z,7.90
2019-03-21T05:56:35.758Z,7.90
2019-03-21T05:59:02.059Z,7.90
2019-03-21T06:01:28.384Z,7.90
2019-03-21T06:03:54.648Z,7.90
2019-03-21T06:06:33.729Z,7.90
2019-03-21T06:09:00.073Z,7.90
2019-03-21T06:11:27.429Z,7.90
2019-03-21T06:13:53.654Z,7.90
2019-03-21T06:16:20.089Z,7.90
2019-03-21T06:19:09.311Z,7.90
2019-03-21T06:21:54.526Z,7.90
2019-03-21T06:24:36.728Z,7.90
2019-03-21T06:27:26.101Z,7.90
2019-03-21T06:29:52.575Z,7.90
2019-03-21T06:32:18.885Z,8.00
2019-03-21T06:34:45.294Z,8.00
2019-03-21T06:37:11.729Z,8.10
2019-03-21T06:39:38.056Z,8.10
2019-03-21T06:42:04.712Z,8.20
2019-03-21T06:44:31.026Z,8.30
2019-03-21T06:46:58.073Z,8.30
2019-03-21T06:49:24.282Z,8.40
2019-03-21T06:51:50.631Z,8.50
2019-03-21T06:54:16.959Z,8.50
2019-03-21T06:56:44.484Z,8.60
2019-03-21T06:59:10.807Z,8.70
2019-03-21T07:01:37.184Z,8.80
2019-03-21T07:04:07.459Z,8.80
2019-03-21T07:06:31.600Z,8.90
2019-03-21T07:08:58.441Z,9.00
2019-03-21T07:11:24.754Z,9.10
2019-03-21T07:13:51.084Z,9.20
2019-03-21T07:16:17.424Z,9.30
2019-03-21T07:18:43.735Z,9.40
2019-03-21T07:21:10.076Z,9.50
2019-03-21T07:23:36.405Z,9.60
2019-03-21T07:26:02.736Z,9.70
2019-03-21T07:28:29.066Z,9.80
2019-03-21T07:30:55.334Z,9.90
2019-03-21T07:33:21.630Z,10.00
2019-03-21T07:35:48.061Z,10.20
2019-03-21T07:38:14.626Z,10.30
2019-03-21T07:40:41.032Z,10.40
2019-03-21T07:43:07.242Z,10.50
2019-03-21T07:45:33.589Z,10.60
2019-03-21T07:47:59.920Z,10.70
2019-03-21T07:50:26.125Z,10.80
2019-03-21T07:52:52.485Z,10.90
2019-03-21T07:55:18.731Z,11.00
2019-03-21T07:57:45.142Z,11.10
2019-03-21T08:00:16.312Z,11.20
2019-03-21T08:02:42.708Z,11.30
2019-03-21T08:05:09.755Z,11.40
2019-03-21T08:07:36.016Z,11.50
2019-03-21T08:10:04.855Z,11.60
2019-03-21T08:12:31.159Z,11.80
2019-03-21T08:14:57.540Z,11.90
2019-03-21T08:17:23.864Z,12.00
2019-03-21T08:19:50.298Z,12.10
2019-03-21T08:22:18.287Z,12.20
2019-03-21T08:24:44.598Z,12.30
2019-03-21T08:27:10.798Z,12.40
2019-03-21T08:29:37.154Z,12.50
2019-03-21T08:32:05.206Z,12.60
2019-03-21T08:34:31.559Z,12.80
2019-03-21T08:36:57.771Z,12.90
2019-03-21T08:39:24.074Z,13.00
2019-03-21T08:41:52.307Z,13.10
2019-03-21T08:44:18.455Z,13.20
2019-03-21T08:46:44.846Z,13.40
2019-03-21T08:49:11.101Z,13.40
2019-03-21T08:51:37.431Z,13.60
2019-03-21T08:54:03.761Z,13.70
2019-03-21T08:56:30.091Z,13.80
2019-03-21T08:58:56.420Z,13.90
2019-03-21T09:01:22.760Z,14.10
2019-03-21T09:03:50.865Z,14.20
2019-03-21T09:06:20.437Z,14.30
2019-03-21T09:08:46.766Z,14.40
2019-03-21T09:11:13.091Z,14.50
2019-03-21T09:13:39.423Z,14.60
2019-03-21T09:16:05.872Z,14.70
2019-03-21T09:18:32.510Z,14.80
2019-03-21T09:20:58.822Z,15.00
2019-03-21T09:23:25.122Z,15.10
2019-03-21T09:25:51.585Z,15.20
2019-03-21T09:28:17.918Z,15.40
2019-03-21T09:30:44.363Z,15.50
2019-03-21T09:33:10.629Z,15.60
2019-03-21T09:35:37.009Z,15.70
2019-03-21T09:38:03.238Z,15.80
2019-03-21T09:40:29.532Z,15.90
2019-03-21T09:42:55.898Z,16.00
2019-03-21T09:45:22.113Z,16.10
2019-03-21T09:47:48.454Z,16.20
2019-03-21T09:50:28.918Z,16.30
2019-03-21T09:52:55.460Z,16.40
2019-03-21T09:55:21.782Z,16.50
2019-03-21T09:57:49.765Z,16.60
2019-03-21T10:00:28.227Z,16.70
2019-03-21T10:02:54.540Z,16.80
2019-03-21T10:05:20.927Z,16.90
2019-03-21T10:07:47.141Z,16.90
2019-03-21T10:10:19.209Z,17.00
2019-03-21T10:12:45.343Z,17.10
2019-03-21T10:15:11.677Z,17.20
2019-03-21T10:17:37.908Z,17.20
2019-03-21T10:20:05.359Z,17.30
2019-03-21T10:22:31.598Z,17.40
2019-03-21T10:24:57.922Z,17.50
2019-03-21T10:27:24.204Z,17.50
2019-03-21T10:29:50.582Z,17.60
2019-03-21T10:32:16.881Z,17.60
2019-03-21T10:34:43.174Z,17.70
2019-03-21T10:37:11.395Z,17.70
2019-03-21T10:39:37.645Z,17.80
2019-03-21T10:42:03.974Z,17.90
2019-03-21T10:44:30.213Z,17.90
2019-03-21T10:46:57.463Z,18.00
2019-03-21T10:49:23.713Z,18.00
2019-03-21T10:51:54.946Z,18.00
2019-03-21T10:54:18.183Z,18.00
2019-03-21T10:56:44.400Z,18.00
2019-03-21T10:59:10.709Z,18.00
2019-03-21T11:01:38.722Z,18.10
2019-03-21T11:04:05.081Z,18.10
2019-03-21T11:06:31.693Z,18.10
2019-03-21T11:08:58.002Z,18.10
2019-03-21T11:11:24.313Z,18.20
2019-03-21T11:13:50.610Z,18.20
2019-03-21T11:16:17.000Z,18.30
2019-03-21T11:18:43.330Z,18.30
2019-03-21T11:21:09.558Z,18.40
2019-03-21T11:23:36.212Z,18.50
2019-03-21T11:26:02.618Z,18.60
2019-03-21T11:28:28.962Z,18.70
2019-03-21T11:30:55.289Z,18.80
2019-03-21T11:33:21.558Z,18.90
2019-03-21T11:35:47.951Z,18.90
2019-03-21T11:38:14.245Z,19.00
2019-03-21T11:40:40.572Z,19.00
2019-03-21T11:43:08.278Z,19.00
2019-03-21T11:45:34.558Z,18.90
2019-03-21T11:48:00.867Z,18.90
2019-03-21T11:50:27.361Z,18.90
2019-03-21T11:52:54.912Z,19.00
2019-03-21T11:55:22.205Z,19.00
2019-03-21T11:57:48.514Z,19.00
2019-03-21T12:00:15.519Z,19.10
2019-03-21T12:02:42.091Z,19.10
2019-03-21T12:05:08.848Z,19.20
2019-03-21T12:07:35.122Z,19.30
2019-03-21T12:10:01.889Z,19.30
2019-03-21T12:12:28.229Z,19.30
2019-03-21T12:14:54.559Z,19.30
2019-03-21T12:17:20.888Z,19.20
2019-03-21T12:19:47.218Z,19.30
2019-03-21T12:22:13.547Z,19.30
2019-03-21T12:24:39.810Z,19.20
2019-03-21T12:27:06.209Z,19.30
2019-03-21T12:29:32.507Z,19.30
2019-03-21T12:31:58.869Z,19.30
2019-03-21T12:34:25.200Z,19.30
2019-03-21T12:36:51.507Z,19.40
2019-03-21T12:39:17.807Z,19.40
2019-03-21T12:41:44.191Z,19.40
2019-03-21T12:44:10.521Z,19.40
2019-03-21T12:46:36.754Z,19.50
2019-03-21T12:49:05.052Z,19.50
2019-03-21T12:51:31.358Z,19.50
2019-03-21T12:53:58.008Z,19.50
2019-03-21T12:56:24.334Z,19.60
2019-03-21T12:58:50.649Z,19.60
2019-03-21T13:01:16.939Z,19.60
2019-03-21T13:03:43.313Z,19.60
2019-03-21T13:06:09.628Z,19.70
2019-03-21T13:08:35.973Z,19.70
2019-03-21T13:11:02.411Z,19.70
2019-03-21T13:13:28.737Z,19.70
2019-03-21T13:15:55.067Z,19.80
2019-03-21T13:18:21.398Z,19.80
2019-03-21T13:20:47.727Z,19.80
2019-03-21T13:23:14.080Z,19.80
2019-03-21T13:25:40.667Z,19.80
2019-03-21T13:28:07.347Z,19.70
2019-03-21T13:30:34.369Z,19.60
2019-03-21T13:33:00.674Z,19.50
2019-03-21T13:35:32.472Z,19.40
2019-03-21T13:37:55.088Z,19.30
2019-03-21T13:40:22.486Z,19.30
2019-03-21T13:42:48.912Z,19.30
2019-03-21T13:45:15.229Z,19.30
2019-03-21T13:47:43.214Z,19.30
2019-03-21T13:50:09.730Z,19.30
2019-03-21T13:52:35.985Z,19.30
2019-03-21T13:55:05.322Z,19.30
2019-03-21T13:57:31.698Z,19.20
2019-03-21T13:59:58.024Z,19.20
2019-03-21T14:02:24.356Z,19.20
2019-03-21T14:04:50.786Z,19.20
2019-03-21T14:07:17.124Z,19.20
2019-03-21T14:09:43.446Z,19.20
2019-03-21T14:12:09.705Z,19.30
2019-03-21T14:14:36.116Z,19.10
2019-03-21T14:17:02.621Z,19.30
2019-03-21T14:19:29.298Z,19.30
2019-03-21T14:21:55.715Z,19.40
2019-03-21T14:24:22.046Z,19.30
2019-03-21T14:26:48.478Z,19.30
2019-03-21T14:29:14.705Z,19.20
2019-03-21T14:31:40.981Z,19.10
2019-03-21T14:34:08.975Z,19.10
2019-03-21T14:36:35.434Z,19.00
2019-03-21T14:39:01.868Z,19.00
2019-03-21T14:41:28.125Z,19.00
2019-03-21T14:43:54.436Z,19.00
2019-03-21T14:46:20.762Z,19.00
2019-03-21T14:48:47.019Z,19.00
2019-03-21T14:51:13.431Z,19.00
2019-03-21T14:53:40.170Z,18.90
2019-03-21T14:56:06.605Z,18.90
2019-03-21T14:58:33.034Z,19.00
2019-03-21T15:00:59.330Z,19.00
2019-03-21T15:03:25.904Z,19.00
2019-03-21T15:05:52.228Z,19.00
2019-03-21T15:08:18.562Z,19.00
2019-03-21T15:10:44.880Z,19.00
2019-03-21T15:13:11.182Z,19.00
2019-03-21T15:15:37.654Z,18.90
2019-03-21T15:18:03.919Z,18.80
2019-03-21T15:20:30.318Z,18.80
2019-03-21T15:22:57.137Z,18.80
2019-03-21T15:25:23.548Z,18.80
2019-03-21T15:27:49.917Z,18.80
2019-03-21T15:30:18.310Z,18.90
2019-03-21T15:32:44.832Z,18.80
2019-03-21T15:35:12.452Z,18.90
2019-03-21T15:37:38.746Z,18.90
2019-03-21T15:40:08.149Z,18.90
2019-03-21T15:42:34.779Z,18.80
2019-03-21T15:45:15.626Z,18.80
2019-03-21T15:47:29.265Z,18.90
2019-03-21T15:49:55.574Z,18.90
2019-03-21T15:52:21.929Z,18.90
2019-03-21T15:54:48.472Z,18.90
2019-03-21T15:57:14.789Z,18.80
2019-03-21T15:59:41.125Z,18.80
2019-03-21T16:02:07.449Z,18.90
2019-03-21T16:04:33.719Z,18.80
2019-03-21T16:07:00.328Z,18.80
2019-03-21T16:09:26.649Z,18.80
2019-03-21T16:11:52.983Z,18.80
2019-03-21T16:14:19.306Z,18.80
2019-03-21T16:16:45.679Z,18.80
2019-03-21T16:19:12.169Z,18.80
2019-03-21T16:21:38.504Z,18.70
2019-03-21T16:24:05.815Z,18.70
2019-03-21T16:26:32.610Z,18.70
2019-03-21T16:28:59.045Z,18.70
2019-03-21T16:31:25.569Z,18.60
2019-03-21T16:33:51.895Z,18.60
2019-03-21T16:36:18.327Z,18.60
2019-03-21T16:38:44.974Z,18.50
2019-03-21T16:41:11.184Z,18.50
2019-03-21T16:43:37.492Z,18.50
2019-03-21T16:46:03.859Z,18.40
2019-03-21T16:48:30.226Z,18.40
2019-03-21T16:50:56.534Z,18.30
2019-03-21T16:53:22.819Z,18.30
2019-03-21T16:55:49.305Z,18.20
2019-03-21T16:58:15.929Z,18.20
2019-03-21T17:00:42.236Z,18.10
2019-03-21T17:03:08.531Z,18.10
2019-03-21T17:05:34.965Z,18.00
2019-03-21T17:08:10.452Z,18.00
2019-03-21T17:10:30.580Z,17.90
2019-03-21T17:12:57.491Z,17.80
2019-03-21T17:15:23.820Z,17.80
2019-03-21T17:17:50.253Z,17.70
2019-03-21T17:20:16.575Z,17.60
2019-03-21T17:22:42.914Z,17.60
2019-03-21T17:25:09.964Z,17.50
2019-03-21T17:27:36.287Z,17.40
2019-03-21T17:30:09.079Z,17.30
2019-03-21T17:32:35.496Z,17.20
2019-03-21T17:35:03.705Z,17.10
2019-03-21T17:37:29.995Z,17.00
2019-03-21T17:39:56.334Z,16.90
2019-03-21T17:42:22.662Z,16.80
2019-03-21T17:44:48.990Z,16.70
2019-03-21T17:47:15.322Z,16.60
2019-03-21T17:49:41.625Z,16.50
2019-03-21T17:52:07.982Z,16.40
2019-03-21T17:54:41.438Z,16.40
2019-03-21T17:57:02.722Z,16.30
2019-03-21T17:59:29.123Z,16.20
2019-03-21T18:01:55.333Z,16.10
2019-03-21T18:04:22.091Z,16.10
2019-03-21T18:06:48.344Z,16.00
2019-03-21T18:09:14.853Z,15.90
2019-03-21T18:11:41.134Z,15.90
2019-03-21T18:14:09.363Z,15.80
2019-03-21T18:16:36.673Z,15.70
2019-03-21T18:19:02.955Z,15.60
2019-03-21T18:21:29.272Z,15.60
2019-03-21T18:23:55.599Z,15.50
2019-03-21T18:26:41.689Z,15.40
2019-03-21T18:29:08.347Z,15.40
2019-03-21T18:31:34.660Z,15.30
2019-03-21T18:34:01.095Z,15.30
2019-03-21T18:36:27.401Z,15.20
2019-03-21T18:38:58.969Z,15.10
2019-03-21T18:41:22.238Z,15.00
2019-03-21T18:43:48.565Z,15.00
2019-03-21T18:46:14.895Z,14.90
2019-03-21T18:48:41.157Z,14.80
2019-03-21T18:51:07.650Z,14.80
2019-03-21T18:53:34.151Z,14.70
2019-03-21T18:56:00.526Z,14.70
2019-03-21T18:58:27.740Z,14.60
2019-03-21T19:00:54.106Z,14.60
2019-03-21T19:03:20.403Z,14.50
2019-03-21T19:05:46.979Z,14.50
2019-03-21T19:08:13.305Z,14.40
2019-03-21T19:10:39.635Z,14.40
2019-03-21T19:13:05.962Z,14.30
2019-03-21T19:15:32.294Z,14.30
2019-03-21T19:17:58.630Z,14.20
2019-03-21T19:20:25.259Z,14.20
2019-03-21T19:22:51.590Z,14.10
2019-03-21T19:25:19.514Z,14.10
2019-03-21T19:27:46.504Z,14.10
2019-03-21T19:30:15.607Z,14.00
2019-03-21T19:32:44.035Z,14.00
2019-03-21T19:35:12.662Z,13.90
2019-03-21T19:37:38.993Z,13.90
2019-03-21T19:40:07.914Z,13.90
2019-03-21T19:42:34.726Z,13.80
2019-03-21T19:45:01.120Z,13.80
2019-03-21T19:47:30.286Z,13.80
2019-03-21T19:49:55.538Z,13.70
2019-03-21T19:52:21.965Z,13.70
2019-03-21T19:54:48.322Z,13.60
2019-03-21T19:57:14.654Z,13.50
2019-03-21T19:59:41.210Z,13.50
2019-03-21T20:02:07.613Z,13.50
2019-03-21T20:04:33.951Z,13.50
2019-03-21T20:07:00.282Z,13.40
2019-03-21T20:09:26.735Z,13.40
2019-03-21T20:11:53.061Z,13.40
2019-03-21T20:14:19.295Z,13.30
2019-03-21T20:16:47.542Z,13.30
2019-03-21T20:19:13.778Z,13.30
2019-03-21T20:21:47.812Z,13.20
2019-03-21T20:24:08.282Z,13.20
2019-03-21T20:26:36.317Z,13.10
2019-03-21T20:29:03.115Z,13.10
2019-03-21T20:31:29.546Z,13.10
2019-03-21T20:33:55.956Z,13.10
2019-03-21T20:36:22.266Z,13.00
2019-03-21T20:38:48.570Z,13.00
2019-03-21T20:41:14.951Z,12.90
2019-03-21T20:43:41.387Z,12.90
2019-03-21T20:46:07.812Z,12.90
2019-03-21T20:48:34.040Z,12.90
2019-03-21T20:51:00.343Z,12.80
2019-03-21T20:53:26.701Z,12.80
2019-03-21T20:55:53.926Z,12.80
2019-03-21T20:58:20.390Z,12.80
2019-03-21T21:00:46.717Z,12.70
2019-03-21T21:03:13.252Z,12.70
2019-03-21T21:05:39.685Z,12.60
2019-03-21T21:08:06.122Z,12.60
2019-03-21T21:10:32.757Z,12.60
2019-03-21T21:12:59.191Z,12.60
2019-03-21T21:15:25.726Z,12.50
2019-03-21T21:17:52.154Z,12.50
2019-03-21T21:20:18.587Z,12.50
2019-03-21T21:22:45.227Z,12.50
2019-03-21T21:25:12.169Z,12.40
2019-03-21T21:27:48.815Z,12.40
2019-03-21T21:30:13.129Z,12.40
2019-03-21T21:32:39.666Z,12.30
2019-03-21T21:35:07.634Z,12.30
2019-03-21T21:37:34.471Z,12.20
2019-03-21T21:40:00.963Z,12.20
2019-03-21T21:42:28.942Z,12.10
2019-03-21T21:44:55.310Z,12.10
2019-03-21T21:47:21.738Z,12.10
2019-03-21T21:49:48.171Z,12.00
2019-03-21T21:52:14.501Z,12.00
2019-03-21T21:54:41.048Z,12.00
2019-03-21T21:57:07.331Z,12.00
2019-03-21T21:59:33.680Z,11.90
2019-03-21T22:02:00.029Z,11.90
2019-03-21T22:04:26.290Z,11.90
2019-03-21T22:06:52.691Z,11.80
2019-03-21T22:09:19.000Z,11.90
2019-03-21T22:11:45.284Z,11.80
2019-03-21T22:14:11.895Z,11.80
2019-03-21T22:16:38.214Z,11.80
2019-03-21T22:19:05.057Z,11.80
2019-03-21T22:21:31.387Z,11.70
2019-03-21T22:23:57.717Z,11.70
2019-03-21T22:26:29.558Z,11.70
2019-03-21T22:28:52.094Z,11.60
2019-03-21T22:31:18.673Z,11.60
2019-03-21T22:33:45.087Z,11.60
2019-03-21T22:36:11.422Z,11.50
2019-03-21T22:38:37.642Z,11.50
2019-03-21T22:41:04.148Z,11.50
2019-03-21T22:43:30.442Z,11.40
2019-03-21T22:45:56.747Z,11.40
2019-03-21T22:48:23.072Z,11.40
2019-03-21T22:50:49.403Z,11.30
2019-03-21T22:53:16.044Z,11.30
2019-03-21T22:55:42.233Z,11.30
2019-03-21T22:58:08.597Z,11.20
2019-03-21T23:00:42.503Z,11.20
2019-03-21T23:03:10.089Z,11.20
2019-03-21T23:05:36.494Z,11.20
2019-03-21T23:08:03.029Z,11.10
2019-03-21T23:10:29.360Z,11.10
2019-03-21T23:12:55.895Z,11.10
2019-03-21T23:15:22.161Z,11.10
2019-03-21T23:17:48.460Z,11.00
2019-03-21T23:20:16.024Z,11.00
2019-03-21T23:22:42.550Z,11.00
2019-03-21T23:25:09.904Z,11.00
2019-03-21T23:27:36.237Z,11.00
2019-03-21T23:30:05.641Z,11.00
2019-03-21T23:32:31.967Z,10.90
2019-03-21T23:34:58.295Z,10.90
2019-03-21T23:37:24.627Z,10.90
2019-03-21T23:39:51.819Z,10.90
2019-03-21T23:42:18.208Z,10.90
2019-03-21T23:44:44.539Z,10.90
2019-03-21T23:47:10.936Z,10.80
2019-03-21T23:49:37.406Z,10.80
2019-03-21T23:52:03.839Z,10.80
2019-03-21T23:54:30.178Z,10.80
2019-03-21T23:57:04.493Z,10.80
2019-03-21T23:59:24.579Z,10.80
